Time;durP1;ratioP1;P1;durP2;ratioP2;P2;SDS_P1;SDS_P2;PMS_P1;PMS_P2;Temp;Humidity;BMP_temperature;BMP_pressure;BME280_temperature;BME280_humidity;BME280_pressure;Samples;Min_cycle;Max_cycle;Signal;HPM_P1;HPM_P2
2023/03/05 00:00:32;;;;;;;16.05;3.65;;;3.50;99.90;;;;;;2092203;28;20465;-78
2023/03/05 00:01:33;;;;;;;12.80;3.58;;;3.50;99.90;;;;;;2090064;28;20064;-78
2023/03/05 00:02:33;;;;;;;15.60;4.30;;;3.50;99.90;;;;;;2084860;28;20048;-78
2023/03/05 00:03:34;;;;;;;16.65;3.63;;;3.50;99.90;;;;;;2079063;28;20029;-77
2023/03/05 00:04:35;;;;;;;13.85;3.85;;;3.50;99.90;;;;;;2078363;28;20428;-78
2023/03/05 00:05:35;;;;;;;15.07;3.80;;;3.50;99.90;;;;;;2077680;28;20086;-77
2023/03/05 00:06:36;;;;;;;14.25;3.60;;;3.40;99.90;;;;;;2086065;28;20035;-77
2023/03/05 00:07:37;;;;;;;18.05;3.55;;;3.50;99.90;;;;;;2085681;28;20211;-83
2023/03/05 00:08:37;;;;;;;16.30;3.90;;;3.40;99.90;;;;;;2078504;28;20060;-75
2023/03/05 00:09:38;;;;;;;16.00;3.90;;;3.50;99.90;;;;;;2082434;28;20448;-75
2023/03/05 00:10:38;;;;;;;15.95;3.90;;;3.40;99.90;;;;;;2090076;28;20032;-80
2023/03/05 00:11:39;;;;;;;15.52;3.90;;;3.40;99.90;;;;;;2090840;28;20044;-79
2023/03/05 00:12:39;;;;;;;17.98;3.95;;;3.40;99.90;;;;;;2087864;28;20048;-80
2023/03/05 00:13:40;;;;;;;20.08;4.20;;;3.40;99.90;;;;;;2087128;28;20037;-78
2023/03/05 00:14:40;;;;;;;18.27;3.97;;;3.40;99.90;;;;;;2087339;28;20399;-80
2023/03/05 00:15:41;;;;;;;16.42;3.95;;;3.40;99.90;;;;;;2087512;28;20114;-79
2023/03/05 00:16:42;;;;;;;16.60;4.00;;;3.40;99.90;;;;;;2085250;28;20033;-79
2023/03/05 00:17:43;;;;;;;12.73;3.63;;;3.40;99.90;;;;;;2079700;28;20039;-79
2023/03/05 00:18:44;;;;;;;15.10;3.53;;;3.40;99.90;;;;;;2068814;28;20139;-77
2023/03/05 00:19:44;;;;;;;16.75;4.15;;;3.40;99.90;;;;;;2089909;28;20522;-77
2023/03/05 00:20:45;;;;;;;21.10;3.85;;;3.40;99.90;;;;;;2089900;28;20174;-77
2023/03/05 00:21:45;;;;;;;17.98;4.03;;;3.40;99.90;;;;;;2092450;28;20060;-77
2023/03/05 00:22:46;;;;;;;16.10;4.00;;;3.40;99.90;;;;;;2089986;28;20037;-77
2023/03/05 00:23:46;;;;;;;15.27;3.90;;;3.40;99.90;;;;;;2087599;28;20295;-79
2023/03/05 00:24:50;;;;;;;15.57;3.85;;;3.40;99.90;;;;;;2079535;28;20024;-76
2023/03/05 00:25:51;;;;;;;15.13;4.07;;;3.40;99.90;;;;;;2082039;28;20021;-77
2023/03/05 00:26:52;;;;;;;21.80;4.10;;;3.40;99.90;;;;;;2093174;28;20024;-77
2023/03/05 00:27:52;;;;;;;20.27;4.43;;;3.40;99.90;;;;;;2083003;28;20563;-77
2023/03/05 00:28:55;;;;;;;17.17;3.83;;;3.40;99.90;;;;;;2078494;28;20021;-76
2023/03/05 00:29:55;;;;;;;16.45;4.22;;;3.40;99.90;;;;;;2080579;28;20155;-77
2023/03/05 00:30:59;;;;;;;14.55;4.38;;;3.40;99.90;;;;;;2083010;28;20047;-76
2023/03/05 00:32:00;;;;;;;16.20;4.10;;;3.40;99.90;;;;;;2079816;28;20523;-77
2023/03/05 00:33:00;;;;;;;18.35;3.97;;;3.40;99.90;;;;;;2073724;28;20176;-77
2023/03/05 00:34:04;;;;;;;15.77;4.07;;;3.40;99.90;;;;;;2082930;28;20036;-78
2023/03/05 00:35:05;;;;;;;14.93;3.72;;;3.40;99.90;;;;;;2090509;28;20074;-77
2023/03/05 00:36:06;;;;;;;16.25;3.72;;;3.40;99.90;;;;;;2088089;28;20020;-77
2023/03/05 00:37:07;;;;;;;13.20;3.72;;;3.40;99.90;;;;;;2089424;28;20544;-77
2023/03/05 00:38:08;;;;;;;17.10;4.38;;;3.40;99.90;;;;;;2078552;28;20040;-78
2023/03/05 00:39:10;;;;;;;14.77;4.05;;;3.40;99.90;;;;;;2086808;28;20005;-77
2023/03/05 00:40:11;;;;;;;15.02;4.13;;;3.30;99.90;;;;;;2086575;28;20112;-77
2023/03/05 00:41:12;;;;;;;17.60;3.97;;;3.30;99.90;;;;;;2089223;28;20368;-77
2023/03/05 00:42:12;;;;;;;19.17;4.70;;;3.40;99.90;;;;;;2087384;28;20029;-77
2023/03/05 00:43:13;;;;;;;22.00;4.40;;;3.40;99.90;;;;;;2087301;28;20562;-77
2023/03/05 00:44:14;;;;;;;16.05;4.35;;;3.40;99.90;;;;;;2097771;28;20028;-77
2023/03/05 00:45:14;;;;;;;13.10;3.92;;;3.30;99.90;;;;;;2083472;28;20053;-78
2023/03/05 00:46:15;;;;;;;16.92;4.13;;;3.30;99.90;;;;;;2077062;28;20524;-77
2023/03/05 00:47:17;;;;;;;15.98;4.22;;;3.30;99.90;;;;;;2083271;28;20052;-77
2023/03/05 00:48:18;;;;;;;15.93;4.10;;;3.30;99.90;;;;;;2083517;28;20517;-78
2023/03/05 00:49:18;;;;;;;18.55;4.07;;;3.30;99.90;;;;;;2075296;28;20026;-76
2023/03/05 00:50:19;;;;;;;15.13;3.90;;;3.30;99.90;;;;;;2072895;28;20450;-78
2023/03/05 00:51:19;;;;;;;14.93;4.10;;;3.30;99.90;;;;;;2081239;28;20041;-77
2023/03/05 00:52:20;;;;;;;16.15;4.10;;;3.30;99.90;;;;;;2082919;28;20037;-78
2023/03/05 00:53:21;;;;;;;17.50;4.25;;;3.30;99.90;;;;;;2081334;28;20171;-77
2023/03/05 00:54:21;;;;;;;18.35;4.05;;;3.30;99.90;;;;;;2079500;28;20078;-77
2023/03/05 00:55:22;;;;;;;19.83;4.57;;;3.30;99.90;;;;;;2073144;28;20124;-77
2023/03/05 00:56:23;;;;;;;16.10;4.13;;;3.30;99.90;;;;;;2084594;28;20021;-76
2023/03/05 00:57:24;;;;;;;21.42;4.25;;;3.30;99.90;;;;;;2090591;28;20557;-78
2023/03/05 00:58:24;;;;;;;15.23;4.10;;;3.20;99.90;;;;;;2086295;28;20029;-77
2023/03/05 00:59:25;;;;;;;15.27;4.00;;;3.30;99.90;;;;;;2088977;28;20033;-78
2023/03/05 01:00:25;;;;;;;18.02;3.90;;;3.30;99.90;;;;;;2079369;28;20021;-77
2023/03/05 01:01:27;;;;;;;16.35;3.83;;;3.30;99.90;;;;;;2081218;28;20412;-77
2023/03/05 01:02:27;;;;;;;16.80;3.80;;;3.30;99.90;;;;;;2074282;28;20053;-77
2023/03/05 01:03:30;;;;;;;15.80;4.15;;;3.30;99.90;;;;;;2074760;28;20029;-77
2023/03/05 01:04:30;;;;;;;15.13;3.63;;;3.20;99.90;;;;;;2091171;28;20545;-79
2023/03/05 01:05:31;;;;;;;17.67;3.83;;;3.30;99.90;;;;;;2093208;28;20074;-79
2023/03/05 01:06:32;;;;;;;16.88;4.13;;;3.20;99.90;;;;;;2082872;28;20068;-79
2023/03/05 01:07:33;;;;;;;16.05;3.92;;;3.20;99.90;;;;;;2078816;28;20492;-78
2023/03/05 01:08:35;;;;;;;16.75;3.83;;;3.20;99.90;;;;;;2086422;28;20037;-78
2023/03/05 01:09:36;;;;;;;15.48;3.88;;;3.20;99.90;;;;;;2083919;28;20529;-78
2023/03/05 01:10:36;;;;;;;16.83;4.13;;;3.20;99.90;;;;;;2079405;28;20097;-77
2023/03/05 01:11:37;;;;;;;14.32;3.67;;;3.20;99.90;;;;;;2079386;28;20028;-77
2023/03/05 01:12:38;;;;;;;12.52;3.65;;;3.20;99.90;;;;;;2079310;28;20079;-78
2023/03/05 01:13:39;;;;;;;17.60;3.70;;;3.20;99.90;;;;;;2071705;28;20026;-78
2023/03/05 01:14:40;;;;;;;16.98;4.00;;;3.20;99.90;;;;;;2068407;28;20026;-76
2023/03/05 01:15:40;;;;;;;18.30;3.85;;;3.20;99.90;;;;;;2072873;28;20052;-77
2023/03/05 01:16:41;;;;;;;14.10;3.58;;;3.20;99.90;;;;;;2078350;28;20029;-73
2023/03/05 01:17:42;;;;;;;16.23;4.05;;;3.20;99.90;;;;;;2076541;28;20164;-73
2023/03/05 01:18:42;;;;;;;12.65;3.55;;;3.20;99.90;;;;;;2074318;28;20168;-74
2023/03/05 01:19:43;;;;;;;16.38;3.90;;;3.20;99.90;;;;;;2083994;28;20047;-74
2023/03/05 01:20:44;;;;;;;18.63;3.92;;;3.20;99.90;;;;;;2090813;28;20089;-74
2023/03/05 01:21:44;;;;;;;21.33;4.10;;;3.20;99.90;;;;;;2089821;28;20062;-75
2023/03/05 01:22:45;;;;;;;14.50;3.80;;;3.10;99.90;;;;;;2087675;28;20063;-73
2023/03/05 01:23:46;;;;;;;16.00;3.60;;;3.20;99.90;;;;;;2088496;28;20104;-74
2023/03/05 01:24:46;;;;;;;16.45;3.90;;;3.10;99.90;;;;;;2091103;28;20035;-73
2023/03/05 01:25:58;;;;;;;14.80;3.83;;;3.20;99.90;;;;;;2091710;28;20032;-73
2023/03/05 01:26:58;;;;;;;18.98;4.03;;;3.10;99.90;;;;;;2086946;28;20021;-73
2023/03/05 01:27:59;;;;;;;18.65;3.80;;;3.10;99.90;;;;;;2087231;28;20519;-74
2023/03/05 01:29:00;;;;;;;11.15;3.50;;;3.10;99.90;;;;;;2084710;28;20021;-74
2023/03/05 01:30:01;;;;;;;17.90;3.80;;;3.10;99.90;;;;;;2081745;28;20179;-73
2023/03/05 01:31:01;;;;;;;17.35;3.58;;;3.10;99.90;;;;;;2066414;28;20546;-73
2023/03/05 01:32:02;;;;;;;15.45;3.60;;;3.10;99.90;;;;;;2080979;28;20531;-73
2023/03/05 01:33:02;;;;;;;15.80;3.33;;;3.10;99.90;;;;;;2091450;28;20215;-73
2023/03/05 01:34:03;;;;;;;18.95;3.92;;;3.10;99.90;;;;;;2089341;28;20407;-73
2023/03/05 01:35:05;;;;;;;15.25;3.67;;;3.10;99.90;;;;;;2088367;28;20904;-74
2023/03/05 01:36:11;;;;;;;12.55;3.20;;;3.10;99.90;;;;;;2082717;28;20542;-74
2023/03/05 01:37:12;;;;;;;18.77;3.67;;;3.00;99.90;;;;;;2083210;28;20120;-74
2023/03/05 01:38:13;;;;;;;13.68;3.47;;;3.00;99.90;;;;;;2092633;28;20569;-73
2023/03/05 01:39:14;;;;;;;18.73;3.95;;;3.10;99.90;;;;;;2082689;28;20083;-73
2023/03/05 01:40:18;;;;;;;13.32;3.13;;;3.10;99.90;;;;;;2085613;28;20021;-73
2023/03/05 01:41:19;;;;;;;14.30;3.53;;;3.00;99.90;;;;;;2087609;28;20056;-73
2023/03/05 01:42:20;;;;;;;16.80;3.90;;;3.00;99.90;;;;;;2079290;28;20040;-73
2023/03/05 01:43:23;;;;;;;17.58;3.30;;;3.00;99.90;;;;;;2080005;28;20124;-73
2023/03/05 01:44:28;;;;;;;16.88;3.42;;;3.00;99.90;;;;;;2084885;28;20040;-73
2023/03/05 01:45:31;;;;;;;12.80;3.22;;;3.00;99.90;;;;;;2080899;28;20021;-72
2023/03/05 01:46:37;;;;;;;15.65;3.10;;;3.00;99.90;;;;;;2082635;28;20465;-72
2023/03/05 01:47:38;;;;;;;16.15;3.03;;;3.00;99.90;;;;;;2083164;28;20043;-72
2023/03/05 01:48:41;;;;;;;19.00;3.58;;;3.00;99.90;;;;;;2086598;28;20413;-73
2023/03/05 01:49:42;;;;;;;16.75;3.30;;;3.00;99.90;;;;;;2087270;28;20112;-73
2023/03/05 01:50:42;;;;;;;12.63;3.03;;;3.00;99.90;;;;;;2086352;28;20396;-72
2023/03/05 01:52:16;;;;;;;17.52;3.50;;;3.00;99.90;;;;;;2084361;28;20036;-73
2023/03/05 01:53:17;;;;;;;16.00;3.38;;;3.00;99.90;;;;;;2094925;28;20031;-73
2023/03/05 01:54:21;;;;;;;12.82;2.90;;;3.00;99.90;;;;;;2098007;28;20016;-74
2023/03/05 01:55:24;;;;;;;15.23;2.88;;;3.00;99.90;;;;;;2086000;28;20561;-73
2023/03/05 01:56:28;;;;;;;18.05;3.30;;;3.00;99.90;;;;;;2090413;28;20029;-74
2023/03/05 01:57:35;;;;;;;13.55;3.28;;;3.00;99.90;;;;;;2088959;28;20056;-73
2023/03/05 01:58:38;;;;;;;17.55;3.30;;;2.90;99.90;;;;;;2080865;28;20370;-73
2023/03/05 01:59:40;;;;;;;18.60;3.35;;;2.90;99.90;;;;;;2079146;28;20091;-72
2023/03/05 02:00:47;;;;;;;16.40;3.00;;;2.90;99.90;;;;;;2087509;28;20029;-73
2023/03/05 02:01:51;;;;;;;13.35;3.25;;;3.00;99.90;;;;;;2081364;28;20035;-73
2023/03/05 02:02:52;;;;;;;18.38;3.38;;;2.90;99.90;;;;;;2081792;28;20060;-73
2023/03/05 02:03:53;;;;;;;16.27;3.13;;;2.90;99.90;;;;;;2095812;28;20487;-74
2023/03/05 02:05:00;;;;;;;14.77;3.00;;;2.90;99.90;;;;;;2093542;28;20028;-74
2023/03/05 02:06:01;;;;;;;14.90;3.28;;;2.90;99.90;;;;;;2084430;28;20043;-74
2023/03/05 02:07:02;;;;;;;13.93;2.63;;;2.90;99.90;;;;;;2081851;28;20485;-73
2023/03/05 02:08:07;;;;;;;13.88;3.10;;;2.90;99.90;;;;;;2091331;28;20107;-73
2023/03/05 02:09:08;;;;;;;13.25;2.80;;;2.90;99.90;;;;;;2080322;28;20021;-73
2023/03/05 02:10:22;;;;;;;17.23;3.30;;;2.90;99.90;;;;;;2080710;28;20025;-73
2023/03/05 02:11:23;;;;;;;14.35;2.88;;;2.90;99.90;;;;;;2086165;28;20028;-73
2023/03/05 02:12:25;;;;;;;13.32;2.70;;;2.90;99.90;;;;;;2080566;28;20021;-73
2023/03/05 02:13:30;;;;;;;14.35;2.90;;;2.90;99.90;;;;;;2077304;28;20403;-74
2023/03/05 02:14:32;;;;;;;14.63;3.17;;;2.90;99.90;;;;;;2087238;28;20082;-74
2023/03/05 02:15:33;;;;;;;17.02;3.30;;;2.90;99.90;;;;;;2087802;28;20044;-73
2023/03/05 02:16:35;;;;;;;11.43;2.78;;;2.90;99.90;;;;;;2081053;28;20077;-72
2023/03/05 02:17:37;;;;;;;13.60;3.22;;;2.90;99.90;;;;;;2079970;28;20089;-74
2023/03/05 02:18:37;;;;;;;16.00;2.97;;;2.90;99.90;;;;;;2074361;28;20060;-74
2023/03/05 02:19:52;;;;;;;15.02;3.28;;;2.90;99.90;;;;;;2079916;28;20562;-74
2023/03/05 02:20:55;;;;;;;13.27;3.30;;;2.80;99.90;;;;;;2088574;28;20032;-72
2023/03/05 02:21:56;;;;;;;12.68;3.08;;;2.90;99.90;;;;;;2085887;28;20143;-72
2023/03/05 02:22:56;;;;;;;17.27;3.10;;;2.90;99.90;;;;;;2091226;28;20425;-73
2023/03/05 02:23:57;;;;;;;12.35;3.22;;;2.80;99.90;;;;;;2085834;28;20566;-72
2023/03/05 02:24:58;;;;;;;11.07;2.92;;;2.80;99.90;;;;;;2088399;28;20033;-72
2023/03/05 02:25:59;;;;;;;11.77;2.90;;;2.80;99.90;;;;;;2087377;28;20379;-73
2023/03/05 02:27:00;;;;;;;15.95;3.00;;;2.80;99.90;;;;;;2076745;28;20025;-73
2023/03/05 02:28:08;;;;;;;15.60;3.10;;;2.80;99.90;;;;;;2077453;28;20041;-72
2023/03/05 02:29:11;;;;;;;17.92;3.30;;;2.80;99.90;;;;;;2080284;28;20025;-74
2023/03/05 02:30:12;;;;;;;13.27;3.45;;;2.80;99.90;;;;;;2082296;28;20055;-73
2023/03/05 02:31:15;;;;;;;18.85;3.58;;;2.80;99.90;;;;;;2088577;28;20036;-73
2023/03/05 02:32:16;;;;;;;16.27;3.20;;;2.80;99.90;;;;;;2090427;28;20017;-73
2023/03/05 02:33:18;;;;;;;15.27;3.10;;;2.80;99.90;;;;;;2089796;28;20109;-72
2023/03/05 02:34:18;;;;;;;16.70;3.22;;;2.80;99.90;;;;;;2086069;28;20908;-72
2023/03/05 02:35:19;;;;;;;12.27;3.10;;;2.80;99.90;;;;;;2077706;28;20116;-72
2023/03/05 02:36:21;;;;;;;12.90;2.83;;;2.80;99.90;;;;;;2088193;28;20029;-72
2023/03/05 02:37:22;;;;;;;12.77;2.97;;;2.80;99.90;;;;;;2079228;28;20551;-73
2023/03/05 02:38:25;;;;;;;13.90;3.30;;;2.70;99.90;;;;;;2079146;28;20029;-72
2023/03/05 02:39:26;;;;;;;15.35;3.15;;;2.70;99.90;;;;;;2088346;28;20507;-72
2023/03/05 02:40:27;;;;;;;17.15;3.55;;;2.70;99.90;;;;;;2093064;28;20025;-72
2023/03/05 02:41:27;;;;;;;13.88;3.22;;;2.70;99.90;;;;;;2079210;28;20021;-72
2023/03/05 02:42:32;;;;;;;13.73;3.17;;;2.70;99.90;;;;;;2081848;28;20029;-73
2023/03/05 02:43:33;;;;;;;14.10;3.25;;;2.70;99.90;;;;;;2084936;28;20037;-73
2023/03/05 02:44:34;;;;;;;12.63;2.72;;;2.70;99.90;;;;;;2085628;28;20045;-73
2023/03/05 02:45:34;;;;;;;14.18;3.17;;;2.70;99.90;;;;;;2090211;28;20130;-73
2023/03/05 02:46:35;;;;;;;12.88;3.05;;;2.70;99.90;;;;;;2088979;28;20474;-72
2023/03/05 02:47:36;;;;;;;16.30;3.38;;;2.70;99.90;;;;;;2086506;28;20107;-73
2023/03/05 02:48:37;;;;;;;15.48;3.10;;;2.70;99.90;;;;;;2086766;28;20044;-72
2023/03/05 02:49:38;;;;;;;10.05;2.92;;;2.70;99.90;;;;;;2087555;28;20082;-72
2023/03/05 02:50:39;;;;;;;9.50;2.83;;;2.70;99.90;;;;;;2091848;28;20036;-72
2023/03/05 02:51:40;;;;;;;13.02;2.88;;;2.60;99.90;;;;;;2080743;28;20504;-72
2023/03/05 02:52:41;;;;;;;13.52;2.75;;;2.70;99.90;;;;;;2082576;28;20353;-73
2023/03/05 02:53:46;;;;;;;15.13;3.33;;;2.60;99.90;;;;;;2082070;28;20029;-75
2023/03/05 02:54:48;;;;;;;13.07;2.80;;;2.70;99.90;;;;;;2081404;28;20062;-72
2023/03/05 02:55:49;;;;;;;9.95;2.72;;;2.70;99.90;;;;;;2075836;28;20034;-73
2023/03/05 02:56:50;;;;;;;15.52;3.13;;;2.70;99.90;;;;;;2078750;28;20419;-75
2023/03/05 02:57:50;;;;;;;11.57;2.60;;;2.70;99.90;;;;;;2088890;28;20067;-73
2023/03/05 02:58:51;;;;;;;13.75;3.00;;;2.70;99.90;;;;;;2080980;28;20031;-73
2023/03/05 02:59:53;;;;;;;12.07;2.60;;;2.70;99.90;;;;;;2080396;28;20017;-73
2023/03/05 03:00:53;;;;;;;14.18;3.20;;;2.80;99.90;;;;;;2083633;28;20029;-74
2023/03/05 03:01:54;;;;;;;12.05;2.50;;;2.80;99.90;;;;;;2073047;28;20033;-73
2023/03/05 03:02:55;;;;;;;13.35;3.00;;;2.80;99.90;;;;;;2072679;28;20571;-72
2023/03/05 03:03:55;;;;;;;9.02;2.70;;;2.70;99.90;;;;;;2087987;28;20583;-73
2023/03/05 03:04:56;;;;;;;18.52;3.15;;;2.70;99.90;;;;;;2079112;28;20088;-73
2023/03/05 03:05:56;;;;;;;11.63;3.10;;;2.70;99.90;;;;;;2072050;28;20033;-73
2023/03/05 03:06:57;;;;;;;14.40;2.90;;;2.70;99.90;;;;;;2078972;28;20106;-73
2023/03/05 03:07:58;;;;;;;16.27;2.80;;;2.60;99.90;;;;;;2089690;28;20020;-72
2023/03/05 03:08:58;;;;;;;15.43;3.20;;;2.60;99.90;;;;;;2088054;28;20487;-72
2023/03/05 03:09:59;;;;;;;14.00;3.08;;;2.60;99.90;;;;;;2071327;28;20116;-73
2023/03/05 03:11:08;;;;;;;12.63;2.95;;;2.60;99.90;;;;;;2077429;28;20082;-73
2023/03/05 03:12:10;;;;;;;10.35;2.95;;;2.60;99.90;;;;;;2087632;28;21017;-73
2023/03/05 03:13:11;;;;;;;13.82;3.10;;;2.60;99.90;;;;;;2085598;28;20021;-73
2023/03/05 03:14:12;;;;;;;12.07;3.00;;;2.60;99.90;;;;;;2086200;28;20668;-73
2023/03/05 03:15:14;;;;;;;9.90;3.00;;;2.60;99.90;;;;;;2089084;28;20625;-73
2023/03/05 03:16:15;;;;;;;14.02;3.08;;;2.60;99.90;;;;;;2087547;28;20037;-73
2023/03/05 03:17:17;;;;;;;10.82;2.85;;;2.60;99.90;;;;;;2088841;28;20405;-73
2023/03/05 03:18:17;;;;;;;13.80;3.33;;;2.60;99.90;;;;;;2090019;28;20036;-74
2023/03/05 03:19:18;;;;;;;13.20;3.13;;;2.60;99.90;;;;;;2089555;28;20138;-72
2023/03/05 03:20:19;;;;;;;13.68;2.90;;;2.60;99.90;;;;;;2087967;28;20032;-72
2023/03/05 03:21:23;;;;;;;11.40;2.75;;;2.60;99.90;;;;;;2085609;28;20142;-72
2023/03/05 03:22:23;;;;;;;8.77;2.55;;;2.60;99.90;;;;;;2086451;28;20045;-72
2023/03/05 03:23:24;;;;;;;12.75;2.97;;;2.60;99.90;;;;;;2086198;28;20495;-73
2023/03/05 03:24:25;;;;;;;9.30;2.85;;;2.60;99.90;;;;;;2091989;28;20074;-73
2023/03/05 03:25:26;;;;;;;12.40;3.60;;;2.60;99.90;;;;;;2087354;28;20579;-73
2023/03/05 03:26:26;;;;;;;12.43;2.67;;;2.60;99.90;;;;;;2087142;28;20039;-73
2023/03/05 03:27:27;;;;;;;12.85;3.20;;;2.60;99.90;;;;;;2086112;28;20036;-73
2023/03/05 03:28:27;;;;;;;10.00;2.75;;;2.60;99.90;;;;;;2078618;28;20078;-73
2023/03/05 03:29:28;;;;;;;10.20;2.80;;;2.60;99.90;;;;;;2089811;28;20040;-73
2023/03/05 03:30:29;;;;;;;9.23;2.58;;;2.60;99.90;;;;;;2092762;28;20032;-73
2023/03/05 03:31:29;;;;;;;12.98;2.90;;;2.50;99.90;;;;;;2086249;28;20060;-72
2023/03/05 03:32:31;;;;;;;10.48;2.72;;;2.60;99.90;;;;;;2089945;28;20025;-73
2023/03/05 03:33:32;;;;;;;11.43;2.60;;;2.50;99.90;;;;;;2089941;28;20031;-72
2023/03/05 03:34:32;;;;;;;10.82;2.70;;;2.50;99.90;;;;;;2079374;28;20034;-72
2023/03/05 03:35:33;;;;;;;13.02;3.03;;;2.50;99.90;;;;;;2089904;28;20017;-73
2023/03/05 03:36:33;;;;;;;10.55;2.72;;;2.50;99.90;;;;;;2090758;28;20040;-73
2023/03/05 03:37:35;;;;;;;9.77;2.60;;;2.50;99.90;;;;;;2089462;28;20454;-73
2023/03/05 03:38:36;;;;;;;8.93;2.58;;;2.50;99.90;;;;;;2091163;28;20501;-73
2023/03/05 03:39:36;;;;;;;9.90;2.80;;;2.50;99.90;;;;;;2087930;28;20029;-72
2023/03/05 03:40:37;;;;;;;11.93;2.95;;;2.50;99.90;;;;;;2089366;28;20056;-73
2023/03/05 03:41:43;;;;;;;9.77;2.47;;;2.50;99.90;;;;;;2081619;28;20237;-72
2023/03/05 03:42:44;;;;;;;9.18;2.55;;;2.50;99.90;;;;;;2087784;28;20108;-72
2023/03/05 03:43:44;;;;;;;9.20;2.65;;;2.50;99.90;;;;;;2087514;28;20617;-73
2023/03/05 03:44:46;;;;;;;10.45;2.47;;;2.50;99.90;;;;;;2083652;28;20064;-73
2023/03/05 03:45:47;;;;;;;12.15;2.47;;;2.50;99.90;;;;;;2086626;28;20043;-73
2023/03/05 03:46:49;;;;;;;11.15;2.40;;;2.50;99.90;;;;;;2079275;28;20469;-73
2023/03/05 03:47:50;;;;;;;9.85;2.55;;;2.50;99.90;;;;;;2080916;28;20032;-73
2023/03/05 03:48:51;;;;;;;10.68;2.33;;;2.50;99.90;;;;;;2070281;28;20021;-73
2023/03/05 03:49:54;;;;;;;7.35;2.33;;;2.50;99.90;;;;;;2075252;28;20041;-73
2023/03/05 03:50:55;;;;;;;11.77;2.58;;;2.50;99.90;;;;;;2090035;28;20035;-72
2023/03/05 03:51:57;;;;;;;7.75;2.42;;;2.50;99.90;;;;;;2089664;28;20028;-72
2023/03/05 03:52:57;;;;;;;10.32;2.40;;;2.50;99.90;;;;;;2073451;28;20411;-73
2023/03/05 03:53:59;;;;;;;15.43;2.75;;;2.50;99.90;;;;;;2067515;28;20296;-72
2023/03/05 03:55:00;;;;;;;10.07;2.65;;;2.50;99.90;;;;;;2088901;28;20064;-74
2023/03/05 03:56:02;;;;;;;7.63;2.50;;;2.50;99.90;;;;;;2087965;28;20511;-73
2023/03/05 03:57:02;;;;;;;6.25;2.45;;;2.50;99.90;;;;;;2087673;28;20032;-73
2023/03/05 03:58:03;;;;;;;9.73;2.40;;;2.50;99.90;;;;;;2086123;28;20036;-72
2023/03/05 03:59:04;;;;;;;7.00;2.30;;;2.50;99.90;;;;;;2078143;28;20052;-73
2023/03/05 04:00:05;;;;;;;6.90;2.40;;;2.50;99.90;;;;;;2079931;28;20064;-72
2023/03/05 04:01:12;;;;;;;11.75;2.63;;;2.50;99.90;;;;;;2091992;28;20035;-73
2023/03/05 04:02:13;;;;;;;9.52;2.15;;;2.50;99.90;;;;;;2085105;28;20067;-73
2023/03/05 04:03:13;;;;;;;11.10;2.08;;;2.50;99.90;;;;;;2080952;28;20025;-72
2023/03/05 04:04:14;;;;;;;9.18;2.55;;;2.50;99.90;;;;;;2076964;28;20068;-73
2023/03/05 04:05:15;;;;;;;9.38;2.35;;;2.40;99.90;;;;;;2088161;28;20359;-79
2023/03/05 04:06:15;;;;;;;11.43;2.40;;;2.40;99.90;;;;;;2085412;28;20028;-79
2023/03/05 04:07:16;;;;;;;6.55;2.13;;;2.40;99.90;;;;;;2076787;28;20603;-78
2023/03/05 04:08:17;;;;;;;6.65;1.90;;;2.40;99.90;;;;;;2087320;28;20025;-77
2023/03/05 04:09:17;;;;;;;6.20;1.90;;;2.50;99.90;;;;;;2084290;28;20035;-77
2023/03/05 04:10:18;;;;;;;8.23;2.33;;;2.40;99.90;;;;;;2081606;28;20036;-77
2023/03/05 04:11:19;;;;;;;10.20;1.98;;;2.40;99.90;;;;;;2090249;28;20040;-77
2023/03/05 04:12:20;;;;;;;8.38;2.13;;;2.40;99.90;;;;;;2085186;28;20028;-77
2023/03/05 04:13:20;;;;;;;9.75;2.25;;;2.40;99.90;;;;;;2087682;28;20128;-77
2023/03/05 04:14:21;;;;;;;8.85;2.22;;;2.40;99.90;;;;;;2080855;28;20979;-76
2023/03/05 04:15:21;;;;;;;8.20;2.22;;;2.40;99.90;;;;;;2088016;28;20052;-76
2023/03/05 04:16:22;;;;;;;9.80;2.30;;;2.50;99.90;;;;;;2087167;28;20058;-77
2023/03/05 04:17:22;;;;;;;9.02;2.15;;;2.50;99.90;;;;;;2087442;28;20033;-76
2023/03/05 04:18:23;;;;;;;9.68;2.30;;;2.50;99.90;;;;;;2083491;28;20049;-76
2023/03/05 04:19:24;;;;;;;6.55;2.03;;;2.50;99.90;;;;;;2081518;28;20515;-76
2023/03/05 04:20:25;;;;;;;7.22;2.20;;;2.50;99.90;;;;;;2077071;28;20047;-77
2023/03/05 04:21:25;;;;;;;7.10;1.90;;;2.40;99.90;;;;;;2075422;28;20444;-76
2023/03/05 04:22:26;;;;;;;7.55;2.05;;;2.40;99.90;;;;;;2081307;28;20021;-77
2023/03/05 04:23:26;;;;;;;7.10;2.00;;;2.40;99.90;;;;;;2088627;28;20127;-76
2023/03/05 04:24:27;;;;;;;9.60;2.47;;;2.40;99.90;;;;;;2089740;28;20111;-77
2023/03/05 04:25:27;;;;;;;6.80;2.08;;;2.50;99.90;;;;;;2089579;28;20029;-77
2023/03/05 04:26:29;;;;;;;7.57;2.00;;;2.50;99.90;;;;;;2088936;28;20028;-78
2023/03/05 04:27:30;;;;;;;4.68;1.75;;;2.40;99.90;;;;;;2081625;28;20078;-78
2023/03/05 04:28:30;;;;;;;11.10;2.30;;;2.40;99.90;;;;;;2081576;28;20040;-77
2023/03/05 04:29:31;;;;;;;9.13;2.00;;;2.40;99.90;;;;;;2085411;28;20519;-76
2023/03/05 04:30:32;;;;;;;7.10;1.90;;;2.40;99.90;;;;;;2083764;28;20091;-76
2023/03/05 04:31:33;;;;;;;7.07;2.00;;;2.40;99.90;;;;;;2087282;28;20529;-77
2023/03/05 04:32:33;;;;;;;9.65;2.30;;;2.40;99.90;;;;;;2087228;28;20043;-77
2023/03/05 04:33:34;;;;;;;8.30;2.13;;;2.40;99.90;;;;;;2087124;28;20585;-78
2023/03/05 04:34:36;;;;;;;7.72;1.90;;;2.40;99.90;;;;;;2092414;28;20035;-78
2023/03/05 04:35:37;;;;;;;7.63;1.83;;;2.40;99.90;;;;;;2090112;28;20293;-76
2023/03/05 04:36:38;;;;;;;7.47;2.10;;;2.40;99.90;;;;;;2085617;28;20034;-77
2023/03/05 04:37:38;;;;;;;5.50;1.98;;;2.40;99.90;;;;;;2089949;28;20531;-79
2023/03/05 04:38:39;;;;;;;8.02;1.95;;;2.40;99.90;;;;;;2083236;28;20512;-77
2023/03/05 04:39:39;;;;;;;11.05;2.00;;;2.40;99.90;;;;;;2089874;28;20589;-77
2023/03/05 04:40:40;;;;;;;7.25;1.90;;;2.40;99.90;;;;;;2089176;28;20047;-77
2023/03/05 04:41:40;;;;;;;5.97;1.83;;;2.40;99.90;;;;;;2086570;28;20168;-77
2023/03/05 04:42:41;;;;;;;6.55;1.80;;;2.40;99.90;;;;;;2091703;28;20094;-77
2023/03/05 04:43:42;;;;;;;8.95;2.10;;;2.40;99.90;;;;;;2089605;28;20484;-77
2023/03/05 04:44:42;;;;;;;7.88;2.13;;;2.40;99.90;;;;;;2088248;28;20024;-77
2023/03/05 04:45:43;;;;;;;8.30;2.03;;;2.40;99.90;;;;;;2081701;28;20377;-76
2023/03/05 04:46:44;;;;;;;9.50;2.15;;;2.40;99.90;;;;;;2081832;28;20049;-77
2023/03/05 04:47:44;;;;;;;8.63;2.30;;;2.40;99.90;;;;;;2079377;28;20174;-77
2023/03/05 04:48:45;;;;;;;9.00;2.05;;;2.40;99.90;;;;;;2084736;28;20041;-78
2023/03/05 04:49:45;;;;;;;8.73;2.13;;;2.40;99.90;;;;;;2090679;28;20086;-77
2023/03/05 04:50:46;;;;;;;9.52;2.20;;;2.40;99.90;;;;;;2090197;28;20032;-77
2023/03/05 04:51:47;;;;;;;6.53;2.03;;;2.40;99.90;;;;;;2091940;28;20029;-77
2023/03/05 04:52:47;;;;;;;7.55;2.15;;;2.40;99.90;;;;;;2086075;28;20036;-77
2023/03/05 04:53:48;;;;;;;8.10;2.10;;;2.40;99.90;;;;;;2090456;28;20102;-76
2023/03/05 04:54:49;;;;;;;6.75;1.83;;;2.40;99.90;;;;;;2081774;28;20508;-77
2023/03/05 04:55:54;;;;;;;11.13;2.38;;;2.40;99.90;;;;;;2092335;28;20120;-77
2023/03/05 04:56:54;;;;;;;8.38;2.38;;;2.40;99.90;;;;;;2091523;28;20020;-77
2023/03/05 04:57:55;;;;;;;9.07;2.50;;;2.40;99.90;;;;;;2082341;28;20068;-77
2023/03/05 04:58:55;;;;;;;11.77;2.40;;;2.40;99.90;;;;;;2090212;28;20024;-76
2023/03/05 04:59:56;;;;;;;8.70;2.60;;;2.40;99.90;;;;;;2090007;28;20037;-76
2023/03/05 05:01:01;;;;;;;9.18;2.75;;;2.40;99.90;;;;;;2087784;28;20029;-77
2023/03/05 05:02:02;;;;;;;10.10;2.75;;;2.30;99.90;;;;;;2087740;28;20436;-77
2023/03/05 05:03:03;;;;;;;10.45;2.92;;;2.30;99.90;;;;;;2087701;28;20055;-77
2023/03/05 05:04:03;;;;;;;10.23;3.15;;;2.30;99.90;;;;;;2088488;28;20638;-76
2023/03/05 05:05:04;;;;;;;13.63;3.47;;;2.30;99.90;;;;;;2089182;28;20119;-76
2023/03/05 05:06:05;;;;;;;8.50;3.50;;;2.30;99.90;;;;;;2091400;28;20029;-76
2023/03/05 05:07:06;;;;;;;7.70;3.15;;;2.30;99.90;;;;;;2092660;28;20112;-77
2023/03/05 05:08:07;;;;;;;11.93;3.60;;;2.30;99.90;;;;;;2081457;28;20032;-80
2023/03/05 05:09:07;;;;;;;10.10;3.28;;;2.30;99.90;;;;;;2071828;28;20557;-77
2023/03/05 05:10:09;;;;;;;10.10;3.03;;;2.20;99.90;;;;;;2078263;28;20064;-76
2023/03/05 05:11:13;;;;;;;8.50;3.20;;;2.30;99.90;;;;;;2076736;28;20044;-77
2023/03/05 05:12:13;;;;;;;9.80;3.13;;;2.20;99.90;;;;;;2075691;28;20021;-77
2023/03/05 05:13:14;;;;;;;9.77;3.38;;;2.20;99.90;;;;;;2091657;28;20036;-77
2023/03/05 05:14:15;;;;;;;7.25;3.40;;;2.20;99.90;;;;;;2091158;28;20037;-77
2023/03/05 05:15:16;;;;;;;9.32;3.22;;;2.20;99.90;;;;;;2091584;28;20029;-76
2023/03/05 05:16:16;;;;;;;11.05;3.40;;;2.20;99.90;;;;;;2089323;28;20044;-77
2023/03/05 05:17:17;;;;;;;7.60;3.05;;;2.20;99.90;;;;;;2087864;28;20128;-72
2023/03/05 05:18:18;;;;;;;8.50;2.97;;;2.20;99.90;;;;;;2091566;28;20119;-72
2023/03/05 05:19:18;;;;;;;8.68;3.58;;;2.20;99.90;;;;;;2091721;28;20024;-72
2023/03/05 05:20:19;;;;;;;9.93;3.22;;;2.20;99.90;;;;;;2088174;28;20407;-73
2023/03/05 05:21:20;;;;;;;7.88;3.20;;;2.20;99.90;;;;;;2092782;28;20136;-73